createdAt,value
2019-06-01T00:00:49.024Z,9.08
2019-06-01T00:01:57.238Z,8.15
2019-06-01T00:03:05.922Z,12.05
2019-06-01T00:04:14.243Z,11.48
2019-06-01T00:05:23.196Z,11.43
2019-06-01T00:06:31.139Z,10.28
2019-06-01T00:07:40.737Z,8.30
2019-06-01T00:08:49.297Z,9.48
2019-06-01T00:09:58.297Z,11.53
2019-06-01T00:11:06.672Z,12.82
2019-06-01T00:12:15.533Z,12.53
2019-06-01T00:13:23.837Z,13.65
2019-06-01T00:14:32.926Z,14.10
2019-06-01T00:15:41.932Z,10.80
2019-06-01T00:16:50.708Z,9.28
2019-06-01T00:17:58.885Z,8.43
2019-06-01T00:19:07.909Z,10.30
2019-06-01T00:20:16.349Z,9.50
2019-06-01T00:21:25.205Z,12.10
2019-06-01T00:22:33.238Z,11.95
2019-06-01T00:23:42.442Z,11.18
2019-06-01T00:24:50.582Z,17.57
2019-06-01T00:25:59.563Z,10.75
2019-06-01T00:27:07.848Z,11.43
2019-06-01T00:28:16.972Z,12.00
2019-06-01T00:29:25.112Z,14.50
2019-06-01T00:30:33.887Z,9.08
2019-06-01T00:31:43.072Z,10.78
2019-06-01T00:32:52.002Z,9.48
2019-06-01T00:34:00.015Z,12.60
2019-06-01T00:35:08.934Z,13.62
2019-06-01T00:36:17.029Z,9.73
2019-06-01T00:37:25.699Z,9.83
2019-06-01T00:38:33.609Z,11.95
2019-06-01T00:39:43.492Z,13.38
2019-06-01T00:40:52.050Z,15.23
2019-06-01T00:42:01.144Z,10.30
2019-06-01T00:43:09.490Z,11.00
2019-06-01T00:44:18.808Z,11.65
2019-06-01T00:45:26.978Z,11.65
2019-06-01T00:46:36.121Z,10.28
2019-06-01T00:47:44.793Z,19.62
2019-06-01T00:48:54.237Z,11.50
2019-06-01T00:50:02.477Z,12.05
2019-06-01T00:51:11.546Z,12.00
2019-06-01T00:52:20.021Z,12.73
2019-06-01T00:53:29.013Z,11.97
2019-06-01T00:54:37.467Z,14.15
2019-06-01T00:55:47.376Z,9.08
2019-06-01T00:56:55.579Z,10.93
2019-06-01T00:58:04.483Z,10.93
2019-06-01T00:59:12.443Z,11.68
2019-06-01T01:00:21.950Z,10.18
2019-06-01T01:01:30.005Z,10.93
2019-06-01T01:02:38.780Z,14.20
2019-06-01T01:03:48.110Z,11.33
2019-06-01T01:05:21.199Z,15.63
2019-06-01T01:06:29.565Z,13.90
2019-06-01T01:07:38.872Z,9.85
2019-06-01T01:08:47.158Z,13.98
2019-06-01T01:09:56.087Z,14.60
2019-06-01T01:11:04.264Z,12.87
2019-06-01T01:12:13.205Z,10.78
2019-06-01T01:13:23.065Z,15.00
2019-06-01T01:14:32.249Z,11.97
2019-06-01T01:15:40.385Z,10.07
2019-06-01T01:16:49.789Z,14.25
2019-06-01T01:17:57.887Z,12.95
2019-06-01T01:19:06.594Z,14.07
2019-06-01T01:20:15.046Z,11.97
2019-06-01T01:21:24.026Z,10.80
2019-06-01T01:22:32.240Z,11.80
2019-06-01T01:23:41.058Z,11.78
2019-06-01T01:24:50.431Z,11.73
2019-06-01T01:25:59.579Z,13.62
2019-06-01T01:27:07.759Z,9.85
2019-06-01T01:28:16.241Z,10.85
2019-06-01T01:29:24.330Z,15.83
2019-06-01T01:30:33.390Z,18.23
2019-06-01T01:31:41.072Z,13.80
2019-06-01T01:32:51.754Z,13.00
2019-06-01T01:33:59.969Z,16.62
2019-06-01T01:35:10.384Z,19.50
2019-06-01T01:36:18.482Z,15.95
2019-06-01T01:37:26.834Z,13.62
2019-06-01T01:38:34.948Z,13.45
2019-06-01T01:39:43.608Z,15.85
2019-06-01T01:40:52.156Z,15.57
2019-06-01T01:42:01.014Z,15.58
2019-06-01T01:43:09.204Z,13.18
2019-06-01T01:44:18.367Z,13.37
2019-06-01T01:45:26.514Z,14.15
2019-06-01T01:46:35.591Z,14.03
2019-06-01T01:47:43.697Z,20.92
2019-06-01T01:48:52.502Z,13.88
2019-06-01T01:50:00.577Z,14.75
2019-06-01T01:51:09.491Z,19.55
2019-06-01T01:52:17.350Z,15.85
2019-06-01T01:53:26.094Z,17.07
2019-06-01T01:54:34.224Z,15.73
2019-06-01T01:55:43.077Z,15.53
2019-06-01T01:56:52.089Z,14.47
2019-06-01T01:58:01.624Z,11.97
2019-06-01T01:59:09.990Z,17.23
2019-06-01T02:00:34.879Z,19.17
2019-06-01T02:01:42.968Z,14.45
2019-06-01T02:02:51.908Z,13.38
2019-06-01T02:04:00.087Z,15.10
2019-06-01T02:05:10.604Z,24.23
2019-06-01T02:06:18.588Z,16.70
2019-06-01T02:07:27.515Z,18.35
2019-06-01T02:08:35.800Z,19.23
2019-06-01T02:09:44.541Z,17.13
2019-06-01T02:10:53.298Z,20.20
2019-06-01T02:12:02.254Z,13.48
2019-06-01T02:13:10.445Z,15.63
2019-06-01T02:14:19.384Z,16.07
2019-06-01T02:15:27.782Z,14.20
2019-06-01T02:16:36.744Z,12.43
2019-06-01T02:17:44.807Z,13.88
2019-06-01T02:18:55.607Z,16.23
2019-06-01T02:20:03.557Z,14.17
2019-06-01T02:21:12.726Z,15.43
2019-06-01T02:22:20.852Z,13.30
2019-06-01T02:23:30.154Z,10.80
2019-06-01T02:24:38.216Z,11.17
2019-06-01T02:25:47.171Z,18.00
2019-06-01T02:26:55.156Z,15.50
2019-06-01T02:28:04.018Z,14.53
2019-06-01T02:29:12.227Z,13.13
2019-06-01T02:30:21.680Z,18.07
2019-06-01T02:31:40.877Z,16.97
2019-06-01T02:32:40.126Z,13.03
2019-06-01T02:33:48.080Z,12.65
2019-06-01T02:34:58.443Z,16.32
2019-06-01T02:36:06.670Z,12.70
2019-06-01T02:37:15.577Z,15.03
2019-06-01T02:38:23.639Z,11.77
2019-06-01T02:39:32.695Z,14.00
2019-06-01T02:40:40.937Z,15.20
2019-06-01T02:41:49.818Z,12.33
2019-06-01T02:42:59.235Z,17.27
2019-06-01T02:44:08.488Z,13.63
2019-06-01T02:45:18.927Z,16.30
2019-06-01T02:46:27.912Z,13.55
2019-06-01T02:47:36.223Z,13.55
2019-06-01T02:48:45.550Z,13.67
2019-06-01T02:49:53.605Z,18.50
2019-06-01T02:51:04.072Z,14.87
2019-06-01T02:52:12.209Z,14.00
2019-06-01T02:53:20.985Z,11.65
2019-06-01T02:54:29.112Z,15.30
2019-06-01T02:55:38.137Z,13.35
2019-06-01T02:56:46.229Z,14.90
2019-06-01T02:57:56.011Z,13.28
2019-06-01T02:59:04.499Z,16.85
2019-06-01T03:00:15.457Z,13.23
2019-06-01T03:01:36.303Z,11.57
2019-06-01T03:02:46.266Z,15.25
2019-06-01T03:03:57.569Z,13.53
2019-06-01T03:05:08.976Z,14.90
2019-06-01T03:06:18.952Z,15.30
2019-06-01T03:07:31.790Z,13.47
2019-06-01T03:08:41.155Z,16.17
2019-06-01T03:09:50.319Z,15.38
2019-06-01T03:11:01.812Z,18.60
2019-06-01T03:12:13.874Z,17.60
2019-06-01T03:13:25.507Z,16.63
2019-06-01T03:14:36.217Z,12.65
2019-06-01T03:15:47.591Z,14.20
2019-06-01T03:16:59.798Z,18.63
2019-06-01T03:18:09.572Z,14.05
2019-06-01T03:19:21.618Z,15.30
2019-06-01T03:20:32.134Z,14.70
2019-06-01T03:21:43.022Z,14.65
2019-06-01T03:22:55.022Z,12.77
2019-06-01T03:24:13.043Z,20.30
2019-06-01T03:25:20.833Z,17.50
2019-06-01T03:26:33.635Z,15.43
2019-06-01T03:27:44.288Z,17.43
2019-06-01T03:28:57.814Z,13.72
2019-06-01T03:30:12.264Z,17.70
2019-06-01T03:31:19.962Z,14.90
2019-06-01T03:32:36.179Z,14.45
2019-06-01T03:33:39.024Z,19.02
2019-06-01T03:34:47.010Z,16.90
2019-06-01T03:35:55.973Z,14.03
2019-06-01T03:37:04.940Z,15.15
2019-06-01T03:38:14.066Z,13.50
2019-06-01T03:39:22.834Z,16.67
2019-06-01T03:40:31.696Z,17.40
2019-06-01T03:41:40.663Z,13.53
2019-06-01T03:42:49.527Z,12.60
2019-06-01T03:43:57.633Z,15.63
2019-06-01T03:45:07.633Z,15.73
2019-06-01T03:46:16.024Z,13.10
2019-06-01T03:47:25.373Z,17.77
2019-06-01T03:48:33.673Z,15.43
2019-06-01T03:49:42.734Z,14.15
2019-06-01T03:50:51.070Z,16.05
2019-06-01T03:52:00.583Z,12.63
2019-06-01T03:53:09.919Z,11.13
2019-06-01T03:54:19.128Z,15.17
2019-06-01T03:55:27.359Z,10.68
2019-06-01T03:56:36.309Z,18.13
2019-06-01T03:57:44.503Z,12.75
2019-06-01T03:58:53.624Z,16.30
2019-06-01T04:00:03.211Z,13.90
2019-06-01T04:01:12.300Z,12.30
2019-06-01T04:02:32.514Z,12.43
2019-06-01T04:03:31.236Z,14.85
2019-06-01T04:04:39.721Z,15.93
2019-06-01T04:05:48.539Z,20.30
2019-06-01T04:06:56.947Z,13.70
2019-06-01T04:08:05.792Z,10.47
2019-06-01T04:09:13.880Z,14.27
2019-06-01T04:10:23.094Z,17.32
2019-06-01T04:11:31.368Z,14.50
2019-06-01T04:12:40.412Z,14.13
2019-06-01T04:13:48.488Z,16.47
2019-06-01T04:14:57.952Z,13.70
2019-06-01T04:16:06.372Z,11.90
2019-06-01T04:17:14.501Z,13.80
2019-06-01T04:18:22.421Z,18.27
2019-06-01T04:19:31.350Z,17.40
2019-06-01T04:20:39.492Z,17.30
2019-06-01T04:21:49.937Z,12.88
2019-06-01T04:22:57.914Z,13.87
2019-06-01T04:24:07.981Z,13.90
2019-06-01T04:25:16.123Z,13.35
2019-06-01T04:26:25.341Z,14.95
2019-06-01T04:27:33.549Z,12.47
2019-06-01T04:28:42.763Z,11.93
2019-06-01T04:29:50.900Z,16.27
2019-06-01T04:30:59.624Z,13.87
2019-06-01T04:32:08.663Z,12.33
2019-06-01T04:33:17.543Z,15.40
2019-06-01T04:34:26.003Z,13.95
2019-06-01T04:35:34.628Z,15.85
2019-06-01T04:36:43.104Z,17.40
2019-06-01T04:37:52.804Z,13.60
2019-06-01T04:39:01.100Z,17.33
2019-06-01T04:40:11.296Z,12.18
2019-06-01T04:41:19.711Z,17.47
2019-06-01T04:42:28.809Z,11.73
2019-06-01T04:43:37.057Z,15.63
2019-06-01T04:44:46.002Z,20.20
2019-06-01T04:45:54.279Z,15.13
2019-06-01T04:47:04.272Z,12.53
2019-06-01T04:48:12.634Z,14.38
2019-06-01T04:49:21.648Z,15.20
2019-06-01T04:50:29.976Z,14.77
2019-06-01T04:51:38.257Z,10.63
2019-06-01T04:52:46.660Z,13.70
2019-06-01T04:53:55.328Z,14.63
2019-06-01T04:55:05.065Z,12.75
2019-06-01T04:56:15.167Z,14.30
2019-06-01T04:57:23.409Z,14.98
2019-06-01T04:58:32.659Z,18.32
2019-06-01T04:59:40.624Z,16.30
2019-06-01T05:00:49.527Z,13.58
2019-06-01T05:01:57.456Z,13.17
2019-06-01T05:03:08.475Z,12.90
2019-06-01T05:04:15.593Z,15.03
2019-06-01T05:05:24.595Z,10.03
2019-06-01T05:06:32.983Z,13.62
2019-06-01T05:07:42.015Z,16.75
2019-06-01T05:08:50.157Z,15.07
2019-06-01T05:09:58.840Z,13.93
2019-06-01T05:11:08.554Z,12.10
2019-06-01T05:12:17.798Z,10.80
2019-06-01T05:13:25.943Z,13.08
2019-06-01T05:14:34.833Z,10.95
2019-06-01T05:15:43.355Z,12.98
2019-06-01T05:16:52.051Z,12.70
2019-06-01T05:18:00.356Z,12.68
2019-06-01T05:19:10.127Z,10.23
2019-06-01T05:20:18.822Z,11.38
2019-06-01T05:21:28.007Z,11.30
2019-06-01T05:22:36.202Z,11.83
2019-06-01T05:23:45.242Z,11.18
2019-06-01T05:24:53.193Z,13.97
2019-06-01T05:26:02.570Z,14.38
2019-06-01T05:27:11.139Z,11.85
2019-06-01T05:28:20.216Z,13.43
2019-06-01T05:29:28.384Z,13.13
2019-06-01T05:30:37.467Z,16.03
2019-06-01T05:31:45.813Z,18.98
2019-06-01T05:32:54.772Z,12.80
2019-06-01T05:34:02.935Z,12.95
2019-06-01T05:35:12.279Z,10.80
2019-06-01T05:36:20.549Z,10.15
2019-06-01T05:37:29.315Z,11.80
2019-06-01T05:38:37.462Z,9.85
2019-06-01T05:39:46.553Z,10.40
2019-06-01T05:40:54.682Z,13.03
2019-06-01T05:42:03.667Z,15.20
2019-06-01T05:43:14.869Z,11.53
2019-06-01T05:44:22.504Z,12.57
2019-06-01T05:45:30.827Z,11.50
2019-06-01T05:46:40.601Z,11.53
2019-06-01T05:47:49.031Z,10.75
2019-06-01T05:48:57.862Z,11.53
2019-06-01T05:50:08.621Z,12.47
2019-06-01T05:51:18.566Z,10.00
2019-06-01T05:52:26.765Z,13.68
2019-06-01T05:53:35.966Z,13.08
2019-06-01T05:54:44.704Z,14.50
2019-06-01T05:55:53.669Z,8.40
2019-06-01T05:57:01.867Z,12.07
2019-06-01T05:58:11.056Z,9.65
2019-06-01T05:59:19.112Z,10.80
2019-06-01T06:00:38.311Z,12.77
2019-06-01T06:01:46.553Z,10.53
2019-06-01T06:02:55.563Z,12.03
2019-06-01T06:04:03.856Z,9.25
2019-06-01T06:05:14.634Z,12.13
2019-06-01T06:06:23.027Z,16.03
2019-06-01T06:07:31.975Z,13.22
2019-06-01T06:08:40.053Z,10.48
2019-06-01T06:09:48.848Z,14.73
2019-06-01T06:10:57.040Z,11.45
2019-06-01T06:12:06.753Z,12.13
2019-06-01T06:13:15.444Z,10.28
2019-06-01T06:14:24.776Z,12.25
2019-06-01T06:15:33.227Z,15.37
2019-06-01T06:16:42.260Z,12.78
2019-06-01T06:17:50.631Z,12.85
2019-06-01T06:18:59.445Z,10.98
2019-06-01T06:20:08.164Z,10.67
2019-06-01T06:21:18.509Z,13.40
2019-06-01T06:22:26.595Z,10.78
2019-06-01T06:23:35.661Z,12.80
2019-06-01T06:24:43.726Z,12.65
2019-06-01T06:25:52.646Z,14.90
2019-06-01T06:27:00.733Z,12.03
2019-06-01T06:28:09.965Z,9.98
2019-06-01T06:29:18.906Z,12.50
2019-06-01T06:30:27.910Z,11.30
2019-06-01T06:31:36.054Z,15.18
2019-06-01T06:32:44.912Z,13.90
2019-06-01T06:33:56.956Z,13.13
2019-06-01T06:35:04.030Z,12.90
2019-06-01T06:36:12.032Z,14.18
2019-06-01T06:37:21.861Z,15.53
2019-06-01T06:38:29.939Z,13.15
2019-06-01T06:39:39.093Z,12.07
2019-06-01T06:40:47.354Z,10.68
2019-06-01T06:41:57.165Z,13.32
2019-06-01T06:43:18.672Z,10.98
2019-06-01T06:44:16.385Z,16.15
2019-06-01T06:45:24.969Z,21.25
2019-06-01T06:46:33.543Z,12.75
2019-06-01T06:47:41.752Z,10.50
2019-06-01T06:48:51.089Z,12.18
2019-06-01T06:49:59.497Z,12.28
2019-06-01T06:51:08.510Z,14.95
2019-06-01T06:52:17.447Z,12.85
2019-06-01T06:53:34.510Z,10.30
2019-06-01T06:54:35.601Z,10.47
2019-06-01T06:55:44.482Z,10.60
2019-06-01T06:56:52.682Z,13.62
2019-06-01T06:58:01.559Z,11.83
2019-06-01T06:59:11.744Z,14.30
2019-06-01T07:00:20.659Z,15.53
2019-06-01T07:01:28.648Z,15.43
2019-06-01T07:02:37.751Z,12.43
2019-06-01T07:03:45.931Z,12.37
2019-06-01T07:04:55.112Z,13.78
2019-06-01T07:06:03.456Z,11.95
2019-06-01T07:07:12.488Z,11.45
2019-06-01T07:08:20.428Z,11.53
2019-06-01T07:09:29.752Z,13.25
2019-06-01T07:10:37.893Z,10.78
2019-06-01T07:11:47.880Z,13.15
2019-06-01T07:12:56.058Z,13.72
2019-06-01T07:14:04.900Z,16.02
2019-06-01T07:15:13.091Z,12.20
2019-06-01T07:16:23.411Z,9.38
2019-06-01T07:17:31.951Z,10.10
2019-06-01T07:18:40.547Z,9.05
2019-06-01T07:19:48.848Z,11.57
2019-06-01T07:20:57.186Z,12.68
2019-06-01T07:22:05.384Z,11.12
2019-06-01T07:23:14.168Z,11.35
2019-06-01T07:24:22.376Z,9.33
2019-06-01T07:25:31.334Z,9.70
2019-06-01T07:26:40.216Z,7.47
2019-06-01T07:27:50.160Z,10.15
2019-06-01T07:28:58.478Z,7.83
2019-06-01T07:30:08.967Z,11.08
2019-06-01T07:31:17.302Z,8.43
2019-06-01T07:32:26.725Z,8.58
2019-06-01T07:33:35.129Z,8.30
2019-06-01T07:34:43.949Z,8.80
2019-06-01T07:35:52.243Z,9.68
2019-06-01T07:37:01.428Z,6.37
2019-06-01T07:38:09.721Z,8.98
2019-06-01T07:39:18.746Z,10.60
2019-06-01T07:40:28.888Z,10.10
2019-06-01T07:41:38.050Z,8.35
2019-06-01T07:42:46.449Z,9.03
2019-06-01T07:43:55.585Z,9.48
2019-06-01T07:45:05.068Z,14.15
2019-06-01T07:46:14.053Z,11.60
2019-06-01T07:47:22.776Z,14.43
2019-06-01T07:48:31.742Z,9.15
2019-06-01T07:49:39.705Z,11.20
2019-06-01T07:50:48.873Z,8.95
2019-06-01T07:51:57.026Z,8.88
2019-06-01T07:53:06.119Z,9.03
2019-06-01T07:54:14.221Z,7.72
2019-06-01T07:55:23.489Z,7.00
2019-06-01T07:56:32.748Z,9.85
2019-06-01T07:57:43.560Z,11.78
2019-06-01T07:58:51.040Z,6.80
2019-06-01T07:59:59.990Z,6.47
2019-06-01T08:01:08.290Z,11.57
2019-06-01T08:02:17.382Z,8.50
2019-06-01T08:03:28.727Z,9.10
2019-06-01T08:04:52.927Z,9.88
2019-06-01T08:05:45.653Z,6.95
2019-06-01T08:06:55.001Z,13.45
2019-06-01T08:08:03.125Z,10.70
2019-06-01T08:09:12.259Z,7.15
2019-06-01T08:10:21.346Z,7.28
2019-06-01T08:11:34.626Z,12.35
2019-06-01T08:12:40.724Z,8.95
2019-06-01T08:13:49.660Z,7.67
2019-06-01T08:14:57.961Z,8.00
2019-06-01T08:16:07.427Z,7.95
2019-06-01T08:17:15.410Z,7.78
2019-06-01T08:18:25.921Z,7.67
2019-06-01T08:19:34.838Z,7.62
2019-06-01T08:20:44.050Z,6.62
2019-06-01T08:21:53.149Z,6.05
2019-06-01T08:23:02.207Z,7.60
2019-06-01T08:24:10.212Z,5.85
2019-06-01T08:25:19.331Z,6.28
2019-06-01T08:26:28.456Z,5.47
2019-06-01T08:27:37.379Z,4.40
2019-06-01T08:28:45.455Z,5.72
2019-06-01T08:29:54.163Z,5.55
2019-06-01T08:31:02.225Z,4.35
2019-06-01T08:32:11.492Z,3.70
2019-06-01T08:33:19.767Z,4.00
2019-06-01T08:34:28.982Z,2.92
2019-06-01T08:35:37.193Z,3.30
2019-06-01T08:36:46.618Z,4.00
2019-06-01T08:37:54.997Z,5.35
2019-06-01T08:39:03.856Z,5.67
2019-06-01T08:40:12.671Z,4.47
2019-06-01T08:41:21.636Z,10.10
2019-06-01T08:42:29.871Z,5.83
2019-06-01T08:43:38.918Z,4.75
2019-06-01T08:44:46.957Z,3.47
2019-06-01T08:45:56.023Z,6.28
2019-06-01T08:47:04.029Z,6.25
2019-06-01T08:48:13.234Z,2.87
2019-06-01T08:49:21.396Z,3.42
2019-06-01T08:50:30.193Z,3.30
2019-06-01T08:51:38.524Z,3.00
2019-06-01T08:52:47.644Z,5.90
2019-06-01T08:53:57.436Z,6.70
2019-06-01T08:55:08.588Z,4.65
2019-06-01T08:56:16.766Z,4.35
2019-06-01T08:57:26.092Z,4.33
2019-06-01T08:58:34.690Z,5.30
2019-06-01T08:59:43.648Z,8.00
2019-06-01T09:00:52.135Z,7.50
2019-06-01T09:02:01.262Z,6.08
2019-06-01T09:03:09.640Z,5.08
2019-06-01T09:04:18.370Z,5.92
2019-06-01T09:05:27.963Z,7.10
2019-06-01T09:06:36.712Z,9.40
2019-06-01T09:07:44.774Z,3.65
2019-06-01T09:08:54.109Z,5.00
2019-06-01T09:10:02.905Z,5.35
2019-06-01T09:11:11.640Z,4.33
2019-06-01T09:12:19.763Z,5.78
2019-06-01T09:13:29.134Z,7.95
2019-06-01T09:14:37.440Z,3.72
2019-06-01T09:15:46.693Z,4.10
2019-06-01T09:16:55.059Z,5.00
2019-06-01T09:18:04.383Z,6.87
2019-06-01T09:19:12.921Z,4.72
2019-06-01T09:20:21.860Z,3.40
2019-06-01T09:21:29.877Z,3.98
2019-06-01T09:22:38.943Z,5.22
2019-06-01T09:23:47.282Z,4.00
2019-06-01T09:24:56.422Z,4.55
2019-06-01T09:26:05.116Z,3.35
2019-06-01T09:27:14.023Z,4.92
2019-06-01T09:28:22.134Z,3.25
2019-06-01T09:29:32.106Z,4.15
2019-06-01T09:30:40.527Z,5.12
2019-06-01T09:31:49.808Z,5.67
2019-06-01T09:32:58.321Z,3.98
2019-06-01T09:34:07.334Z,3.87
2019-06-01T09:35:15.781Z,2.47
2019-06-01T09:36:26.073Z,3.67
2019-06-01T09:37:35.032Z,3.62
2019-06-01T09:38:43.508Z,4.15
2019-06-01T09:39:52.013Z,2.90
2019-06-01T09:41:01.143Z,5.62
2019-06-01T09:42:09.390Z,4.12
2019-06-01T09:43:18.153Z,4.67
2019-06-01T09:44:26.878Z,3.87
2019-06-01T09:45:36.323Z,2.80
2019-06-01T09:46:44.420Z,5.30
2019-06-01T09:47:53.325Z,4.10
2019-06-01T09:49:01.549Z,3.25
2019-06-01T09:50:11.363Z,6.35
2019-06-01T09:51:19.661Z,3.22
2019-06-01T09:52:29.253Z,3.42
2019-06-01T09:53:38.072Z,2.90
2019-06-01T09:54:47.111Z,2.83
2019-06-01T09:55:55.411Z,4.90
2019-06-01T09:57:04.598Z,2.55
2019-06-01T09:58:13.043Z,3.58
2019-06-01T09:59:22.212Z,5.30
2019-06-01T10:00:30.562Z,4.75
2019-06-01T10:01:39.761Z,3.40
2019-06-01T10:02:47.974Z,3.55
2019-06-01T10:03:56.470Z,4.15
2019-06-01T10:05:05.170Z,5.47
2019-06-01T10:06:14.471Z,2.87
2019-06-01T10:07:22.577Z,4.50
2019-06-01T10:08:32.557Z,4.92
2019-06-01T10:09:42.181Z,4.65
2019-06-01T10:10:51.339Z,3.37
2019-06-01T10:11:59.481Z,3.25
2019-06-01T10:13:08.280Z,4.80
2019-06-01T10:14:16.478Z,3.17
2019-06-01T10:15:25.237Z,3.33
2019-06-01T10:16:34.524Z,3.37
2019-06-01T10:17:43.635Z,4.00
2019-06-01T10:18:52.346Z,3.83
2019-06-01T10:20:01.412Z,3.77
2019-06-01T10:21:10.250Z,3.15
2019-06-01T10:22:19.024Z,3.33
2019-06-01T10:23:27.243Z,3.90
2019-06-01T10:24:37.220Z,5.60
2019-06-01T10:25:45.512Z,3.05
2019-06-01T10:26:54.591Z,3.08
2019-06-01T10:28:03.152Z,2.35
2019-06-01T10:29:12.101Z,2.83
2019-06-01T10:30:20.493Z,2.77
2019-06-01T10:31:30.496Z,3.98
2019-06-01T10:32:39.929Z,4.35
2019-06-01T10:33:51.414Z,2.22
2019-06-01T10:34:58.555Z,3.85
2019-06-01T10:36:19.758Z,2.47
2019-06-01T10:37:17.756Z,2.42
2019-06-01T10:38:26.731Z,4.50
2019-06-01T10:39:35.261Z,5.67
2019-06-01T10:40:44.233Z,2.62
2019-06-01T10:41:52.589Z,4.67
2019-06-01T10:43:01.707Z,3.05
2019-06-01T10:44:09.921Z,3.62
2019-06-01T10:45:19.565Z,6.22
2019-06-01T10:46:27.917Z,3.58
2019-06-01T10:47:38.273Z,2.77
2019-06-01T10:48:46.625Z,3.92
2019-06-01T10:49:55.791Z,3.47
2019-06-01T10:51:04.148Z,3.20
2019-06-01T10:52:13.477Z,2.05
2019-06-01T10:53:21.966Z,2.30
2019-06-01T10:54:30.317Z,2.22
2019-06-01T10:55:38.529Z,1.90
2019-06-01T10:56:47.436Z,2.72
2019-06-01T10:57:55.443Z,3.33
2019-06-01T10:59:04.877Z,2.72
2019-06-01T11:00:14.212Z,4.65
2019-06-01T11:01:22.343Z,4.60
2019-06-01T11:02:30.428Z,4.80
2019-06-01T11:03:40.679Z,1.85
2019-06-01T11:04:48.836Z,1.95
2019-06-01T11:05:57.866Z,2.52
2019-06-01T11:07:06.275Z,2.42
2019-06-01T11:08:15.265Z,3.12
2019-06-01T11:09:23.861Z,2.77
2019-06-01T11:10:32.773Z,2.50
2019-06-01T11:11:41.161Z,1.80
2019-06-01T11:12:50.328Z,2.10
2019-06-01T11:13:58.282Z,2.12
2019-06-01T11:15:12.661Z,2.50
2019-06-01T11:16:21.051Z,3.42
2019-06-01T11:17:30.023Z,1.85
2019-06-01T11:18:39.452Z,3.60
2019-06-01T11:19:48.429Z,2.00
2019-06-01T11:20:57.147Z,3.17
2019-06-01T11:22:06.057Z,2.55
2019-06-01T11:23:14.145Z,3.33
2019-06-01T11:24:22.623Z,3.70
2019-06-01T11:25:31.228Z,2.08
2019-06-01T11:26:40.177Z,3.25
2019-06-01T11:27:48.489Z,3.85
2019-06-01T11:28:57.463Z,3.47
2019-06-01T11:30:08.764Z,2.35
2019-06-01T11:31:17.585Z,2.55
2019-06-01T11:32:25.769Z,2.02
2019-06-01T11:33:35.945Z,3.33
2019-06-01T11:34:44.531Z,1.65
2019-06-01T11:35:53.454Z,3.60
2019-06-01T11:37:05.607Z,2.65
2019-06-01T11:38:13.067Z,4.70
2019-06-01T11:39:21.323Z,3.05
2019-06-01T11:40:30.454Z,2.50
2019-06-01T11:41:38.907Z,2.17
2019-06-01T11:42:47.800Z,1.77
2019-06-01T11:43:55.861Z,1.62
2019-06-01T11:45:06.211Z,1.60
2019-06-01T11:46:14.230Z,2.70
2019-06-01T11:47:23.352Z,2.85
2019-06-01T11:48:31.406Z,4.62
2019-06-01T11:49:40.854Z,3.22
2019-06-01T11:50:48.939Z,1.85
2019-06-01T11:51:57.815Z,3.77
2019-06-01T11:53:06.140Z,4.70
2019-06-01T11:54:15.135Z,6.05
2019-06-01T11:55:23.327Z,6.30
2019-06-01T11:56:32.279Z,4.08
2019-06-01T11:57:41.584Z,3.75
2019-06-01T11:58:50.733Z,2.47
2019-06-01T11:59:58.908Z,3.47
2019-06-01T12:01:07.817Z,3.08
2019-06-01T12:02:15.860Z,4.10
2019-06-01T12:03:24.714Z,2.65
2019-06-01T12:04:32.958Z,1.72
2019-06-01T12:05:42.091Z,2.05
2019-06-01T12:06:50.648Z,1.67
2019-06-01T12:07:59.512Z,1.15
2019-06-01T12:09:11.875Z,2.10
2019-06-01T12:10:21.118Z,1.50
2019-06-01T12:11:29.065Z,2.08
2019-06-01T12:12:38.416Z,2.12
2019-06-01T12:13:46.933Z,1.80
2019-06-01T12:14:56.271Z,1.57
2019-06-01T12:16:04.599Z,3.50
2019-06-01T12:17:13.763Z,1.40
2019-06-01T12:18:22.168Z,1.60
2019-06-01T12:19:31.171Z,2.95
2019-06-01T12:20:40.663Z,2.40
2019-06-01T12:21:49.285Z,1.70
2019-06-01T12:22:57.256Z,2.35
2019-06-01T12:24:06.649Z,2.30
2019-06-01T12:25:15.197Z,2.08
2019-06-01T12:26:24.172Z,2.08
2019-06-01T12:27:32.095Z,2.33
2019-06-01T12:28:41.548Z,2.90
2019-06-01T12:29:52.560Z,2.00
2019-06-01T12:31:00.116Z,2.15
2019-06-01T12:32:08.239Z,7.47
2019-06-01T12:33:16.956Z,2.10
2019-06-01T12:34:25.444Z,3.65
2019-06-01T12:35:34.480Z,2.35
2019-06-01T12:36:42.738Z,2.87
2019-06-01T12:38:05.273Z,1.92
2019-06-01T12:39:01.832Z,3.45
2019-06-01T12:40:11.845Z,1.90
2019-06-01T12:41:20.984Z,3.33
2019-06-01T12:42:29.921Z,2.17
2019-06-01T12:43:38.004Z,4.58
2019-06-01T12:44:47.841Z,2.00
2019-06-01T12:46:06.941Z,2.87
2019-06-01T12:47:06.793Z,3.42
2019-06-01T12:48:15.220Z,1.72
2019-06-01T12:49:24.111Z,2.90
2019-06-01T12:50:31.951Z,2.02
2019-06-01T12:51:42.383Z,4.60
2019-06-01T12:52:50.494Z,2.83
2019-06-01T12:53:59.492Z,3.75
2019-06-01T12:55:08.180Z,2.80
2019-06-01T12:56:17.204Z,3.27
2019-06-01T12:57:25.398Z,1.60
2019-06-01T12:58:34.221Z,2.10
2019-06-01T12:59:43.205Z,1.90
2019-06-01T13:00:52.537Z,1.60
2019-06-01T13:02:00.756Z,1.60
2019-06-01T13:03:09.661Z,2.70
2019-06-01T13:04:17.794Z,3.92
2019-06-01T13:05:26.592Z,1.75
2019-06-01T13:06:34.943Z,2.27
2019-06-01T13:07:56.333Z,2.45
2019-06-01T13:08:53.761Z,4.47
2019-06-01T13:10:03.091Z,3.00
2019-06-01T13:11:11.216Z,1.85
2019-06-01T13:12:20.048Z,3.75
2019-06-01T13:13:28.181Z,6.12
2019-06-01T13:14:37.100Z,4.28
2019-06-01T13:15:45.257Z,3.42
2019-06-01T13:17:06.332Z,3.35
2019-06-01T13:18:04.386Z,2.70
2019-06-01T13:19:12.772Z,2.02
2019-06-01T13:20:21.140Z,3.02
2019-06-01T13:21:29.345Z,3.22
2019-06-01T13:22:37.425Z,6.90
2019-06-01T13:23:47.504Z,3.50
2019-06-01T13:24:55.985Z,3.27
2019-06-01T13:26:05.113Z,1.50
2019-06-01T13:27:13.175Z,1.40
2019-06-01T13:28:37.309Z,1.60
2019-06-01T13:29:31.682Z,2.47
2019-06-01T13:30:40.390Z,4.75
2019-06-01T13:31:48.453Z,4.70
2019-06-01T13:32:57.350Z,2.85
2019-06-01T13:34:05.530Z,3.05
2019-06-01T13:35:15.200Z,2.30
2019-06-01T13:36:23.499Z,3.50
2019-06-01T13:37:32.159Z,2.87
2019-06-01T13:38:40.350Z,2.37
2019-06-01T13:39:54.592Z,2.83
2019-06-01T13:40:58.763Z,2.65
2019-06-01T13:42:07.923Z,2.08
2019-06-01T13:43:16.139Z,6.45
2019-06-01T13:44:25.094Z,2.20
2019-06-01T13:45:33.106Z,2.30
2019-06-01T13:46:43.354Z,1.47
2019-06-01T13:47:51.891Z,4.40
2019-06-01T13:49:01.098Z,4.95
2019-06-01T13:50:09.940Z,2.72
2019-06-01T13:51:19.052Z,2.98
2019-06-01T13:52:27.027Z,3.08
2019-06-01T13:53:35.928Z,2.25
2019-06-01T13:54:44.108Z,4.05
2019-06-01T13:55:54.819Z,3.10
2019-06-01T13:57:03.099Z,2.62
2019-06-01T13:58:12.199Z,2.45
2019-06-01T13:59:20.327Z,1.92
2019-06-01T14:00:30.733Z,2.35
2019-06-01T14:01:39.256Z,4.45
2019-06-01T14:02:51.337Z,1.30
2019-06-01T14:03:58.126Z,2.05
2019-06-01T14:05:09.460Z,2.65
2019-06-01T14:06:18.153Z,2.12
2019-06-01T14:07:26.998Z,2.17
2019-06-01T14:08:35.025Z,3.20
2019-06-01T14:09:45.177Z,5.87
2019-06-01T14:10:53.488Z,6.75
2019-06-01T14:12:02.330Z,2.40
2019-06-01T14:13:10.886Z,1.80
2019-06-01T14:14:20.381Z,1.90
2019-06-01T14:15:29.062Z,1.70
2019-06-01T14:16:38.279Z,2.05
2019-06-01T14:17:47.867Z,1.72
2019-06-01T14:18:57.215Z,2.72
2019-06-01T14:20:08.175Z,1.98
2019-06-01T14:21:17.195Z,1.90
2019-06-01T14:22:25.518Z,3.87
2019-06-01T14:23:34.743Z,6.10
2019-06-01T14:24:45.622Z,3.87
2019-06-01T14:25:54.292Z,3.33
2019-06-01T14:27:04.187Z,3.80
2019-06-01T14:28:13.267Z,2.45
2019-06-01T14:29:21.664Z,4.87
2019-06-01T14:30:30.902Z,2.65
2019-06-01T14:31:39.217Z,5.90
2019-06-01T14:32:48.781Z,1.62
2019-06-01T14:33:57.116Z,2.67
2019-06-01T14:35:08.454Z,3.02
2019-06-01T14:36:17.302Z,3.22
2019-06-01T14:37:26.456Z,2.22
2019-06-01T14:38:46.634Z,2.98
2019-06-01T14:39:46.650Z,1.95
2019-06-01T14:40:55.216Z,2.27
2019-06-01T14:42:04.570Z,2.75
2019-06-01T14:43:12.956Z,3.17
2019-06-01T14:44:22.340Z,2.10
2019-06-01T14:45:30.293Z,2.25
2019-06-01T14:46:52.908Z,6.67
2019-06-01T14:47:49.383Z,6.25
2019-06-01T14:48:58.928Z,11.57
2019-06-01T14:50:09.441Z,8.38
2019-06-01T14:51:18.596Z,9.20
2019-06-01T14:52:27.223Z,8.93
2019-06-01T14:53:36.169Z,5.72
2019-06-01T14:54:44.590Z,7.75
2019-06-01T14:55:53.918Z,6.90
2019-06-01T14:57:02.017Z,4.85
2019-06-01T14:58:10.778Z,6.95
2019-06-01T14:59:19.010Z,10.15
2019-06-01T15:00:27.822Z,4.72
2019-06-01T15:01:35.946Z,4.92
2019-06-01T15:02:44.932Z,5.62
2019-06-01T15:03:54.507Z,4.25